Time;durP1;ratioP1;P1;durP2;ratioP2;P2;SDS_P1;SDS_P2;PMS_P1;PMS_P2;Temp;Humidity;BMP_temperature;BMP_pressure;BME280_temperature;BME280_humidity;BME280_pressure;Samples;Min_cycle;Max_cycle;Signal;HPM_P1;HPM_P2
2023/08/20 00:01:56;;;;;;;11.10;10.20;;;;;;;23.05;92.14;100685.70;84062;270;137601;-65
2023/08/20 00:03:58;;;;;;;10.30;9.40;;;;;;;23.01;92.82;100683.15;84363;282;22809;-66
2023/08/20 00:06:01;;;;;;;10.60;9.60;;;;;;;22.99;93.03;100683.80;84296;281;139203;-65
2023/08/20 00:08:05;;;;;;;13.70;10.10;;;;;;;22.96;93.47;100685.03;84203;281;137696;-64
2023/08/20 00:10:08;;;;;;;10.90;9.80;;;;;;;22.92;93.53;100687.39;84130;282;24343;-67
2023/08/20 00:12:10;;;;;;;10.50;9.10;;;;;;;22.88;93.85;100692.91;84480;282;139183;-68
2023/08/20 00:14:17;;;;;;;12.40;11.40;;;;;;;22.84;93.61;100689.08;84193;282;22550;-67
2023/08/20 00:16:20;;;;;;;10.50;9.50;;;;;;;22.85;93.36;100690.17;84025;283;138088;-65
2023/08/20 00:18:22;;;;;;;10.90;9.90;;;;;;;22.89;93.17;100686.29;84418;282;24100;-69
2023/08/20 00:20:25;;;;;;;14.00;11.00;;;;;;;22.91;92.62;100682.73;84071;282;137328;-65
2023/08/20 00:22:27;;;;;;;11.20;10.00;;;;;;;22.94;92.80;100682.03;84196;282;22539;-64
2023/08/20 00:24:29;;;;;;;9.70;8.80;;;;;;;22.97;92.79;100683.46;84125;283;137397;-66
2023/08/20 00:26:31;;;;;;;12.00;10.90;;;;;;;22.97;93.27;100684.10;84350;282;22571;-63
2023/08/20 00:28:34;;;;;;;11.80;10.50;;;;;;;22.93;93.21;100681.64;84241;282;137410;-65
2023/08/20 00:30:37;;;;;;;13.40;12.10;;;;;;;22.90;93.69;100681.30;84521;281;22564;-66
2023/08/20 00:32:39;;;;;;;12.60;11.30;;;;;;;22.84;93.59;100682.88;84120;283;137101;-67
2023/08/20 00:34:41;;;;;;;10.90;10.00;;;;;;;22.79;94.26;100681.61;84311;282;22981;-65
2023/08/20 00:36:42;;;;;;;14.60;13.20;;;;;;;22.75;95.45;100683.54;83985;283;137907;-64
2023/08/20 00:38:45;;;;;;;12.20;11.20;;;;;;;22.78;95.31;100684.85;84040;285;22567;-63
2023/08/20 00:40:47;;;;;;;10.80;9.60;;;;;;;22.87;95.62;100681.00;84441;282;137468;-66
2023/08/20 00:42:49;;;;;;;11.70;10.50;;;;;;;22.96;95.32;100680.85;84226;283;25319;-65
2023/08/20 00:44:52;;;;;;;10.90;9.90;;;;;;;23.02;94.17;100679.47;84097;282;138981;-68
2023/08/20 00:46:55;;;;;;;10.60;9.60;;;;;;;23.00;93.67;100682.45;84648;281;22692;-62
2023/08/20 00:48:57;;;;;;;10.70;9.70;;;;;;;22.95;93.68;100686.38;84335;282;137468;-62
2023/08/20 00:50:59;;;;;;;11.70;10.70;;;;;;;22.90;92.72;100688.52;84083;283;22694;-65
2023/08/20 00:53:02;;;;;;;8.80;8.10;;;;;;;22.88;92.16;100691.61;84124;281;138763;-66
2023/08/20 00:55:09;;;;;;;9.70;7.40;;;;;;;22.91;92.28;100682.39;84299;282;22547;-65
2023/08/20 00:57:13;;;;;;;10.30;7.40;;;;;;;22.94;91.22;100678.88;84319;283;136990;-67
2023/08/20 00:59:16;;;;;;;11.20;10.10;;;;;;;22.99;91.68;100678.95;84285;282;23957;-67
2023/08/20 01:01:18;;;;;;;15.40;10.90;;;;;;;22.94;91.67;100680.52;84242;282;137540;-66
2023/08/20 01:03:20;;;;;;;9.60;8.80;;;;;;;22.89;91.50;100680.58;84211;282;26017;-66
2023/08/20 01:05:22;;;;;;;10.00;9.10;;;;;;;22.90;92.27;100678.66;84018;283;138253;-64
2023/08/20 01:07:36;;;;;;;10.30;9.20;;;;;;;22.87;91.50;100672.36;84351;282;22773;-65
2023/08/20 01:10:02;;;;;;;11.60;10.10;;;;;;;22.87;91.79;100669.11;84079;283;138491;-65
2023/08/20 01:12:06;;;;;;;11.60;10.50;;;;;;;22.92;92.27;100663.59;84137;282;137928;-66
2023/08/20 01:14:18;;;;;;;14.80;10.40;;;;;;;22.88;92.77;100660.52;84347;282;24145;-67
2023/08/20 01:16:20;;;;;;;11.40;10.40;;;;;;;22.78;92.70;100662.02;84182;282;137742;-66
2023/08/20 01:18:24;;;;;;;9.70;8.90;;;;;;;22.72;92.81;100660.25;84274;282;22550;-64
2023/08/20 01:20:32;;;;;;;12.20;10.90;;;;;;;22.70;93.79;100659.04;84207;282;137563;-66
2023/08/20 01:22:44;;;;;;;11.30;9.80;;;;;;;22.76;94.05;100657.67;84336;282;22550;-64
2023/08/20 01:25:17;;;;;;;11.20;10.20;;;;;;;22.85;93.72;100661.20;84238;282;137059;-66
2023/08/20 01:27:45;;;;;;;11.90;10.70;;;;;;;22.87;93.41;100665.52;84437;282;23545;-66
2023/08/20 01:29:48;;;;;;;10.60;9.80;;;;;;;22.78;92.58;100669.15;84181;283;139005;-65
2023/08/20 01:31:51;;;;;;;10.70;9.80;;;;;;;22.78;93.38;100667.84;84354;283;24132;-64
2023/08/20 01:33:53;;;;;;;9.20;8.40;;;;;;;22.80;92.29;100664.33;84419;283;137119;-65
2023/08/20 01:35:58;;;;;;;12.00;8.40;;;;;;;22.85;91.25;100667.88;84403;282;25273;-64
2023/08/20 01:38:00;;;;;;;11.80;8.00;;;;;;;22.95;90.95;100665.30;84219;283;137592;-66
2023/08/20 01:40:07;;;;;;;12.10;8.20;;;;;;;23.02;89.98;100662.34;84328;282;139109;-63
2023/08/20 01:42:09;;;;;;;8.10;7.10;;;;;;;23.08;89.48;100661.10;84334;282;25338;-70
2023/08/20 01:44:10;;;;;;;6.80;6.20;;;;;;;23.17;88.89;100661.75;84168;282;137345;-66
2023/08/20 01:46:12;;;;;;;8.70;7.80;;;;;;;23.25;88.21;100659.94;84253;283;25251;-65
2023/08/20 01:48:14;;;;;;;8.30;7.50;;;;;;;23.32;87.46;100658.49;84270;282;137421;-68
2023/08/20 01:50:16;;;;;;;10.30;7.30;;;;;;;23.37;87.17;100657.41;83729;283;672952;-64
2023/08/20 01:52:18;;;;;;;9.80;9.00;;;;;;;23.42;86.80;100656.73;84133;282;137667;-65
2023/08/20 01:54:19;;;;;;;11.70;7.70;;;;;;;23.47;86.47;100654.25;84252;282;24933;-64
2023/08/20 01:56:23;;;;;;;8.00;7.40;;;;;;;23.53;86.02;100655.52;84258;282;137446;-63
2023/08/20 01:58:27;;;;;;;7.90;7.30;;;;;;;23.58;85.73;100657.66;84384;282;26226;-62
2023/08/20 02:00:30;;;;;;;10.40;8.80;;;;;;;23.59;85.51;100654.35;84118;282;138561;-66
2023/08/20 02:02:34;;;;;;;9.10;8.20;;;;;;;23.59;85.73;100658.33;84319;282;25179;-64
2023/08/20 02:04:36;;;;;;;9.50;8.50;;;;;;;23.59;85.63;100660.11;84200;284;136738;-66
2023/08/20 02:06:38;;;;;;;12.30;8.90;;;;;;;23.59;85.79;100661.85;84211;283;22653;-67
2023/08/20 02:08:40;;;;;;;11.00;7.20;;;;;;;23.61;85.70;100665.09;84186;283;137203;-66
2023/08/20 02:10:42;;;;;;;10.40;9.40;;;;;;;23.60;85.70;100665.14;84266;283;25230;-63
2023/08/20 02:12:44;;;;;;;10.50;9.70;;;;;;;23.55;86.25;100664.02;84087;283;137742;-63
2023/08/20 02:14:46;;;;;;;10.10;9.20;;;;;;;23.39;86.93;100666.04;84275;284;25235;-66
2023/08/20 02:16:54;;;;;;;11.40;9.50;;;;;;;23.20;87.85;100667.36;84171;282;137299;-69
2023/08/20 02:18:55;;;;;;;8.20;7.60;;;;;;;23.02;88.81;100667.90;84285;282;22549;-69
2023/08/20 02:20:59;;;;;;;8.40;7.80;;;;;;;22.89;89.66;100666.77;86521;282;138954;-66
2023/08/20 02:23:01;;;;;;;10.30;9.40;;;;;;;22.90;90.21;100664.66;84245;282;23337;-64
2023/08/20 02:25:03;;;;;;;10.30;9.30;;;;;;;22.96;91.15;100665.45;84153;282;138648;-68
2023/08/20 02:27:05;;;;;;;10.10;9.20;;;;;;;22.96;91.04;100668.17;84377;282;22771;-66
2023/08/20 02:29:07;;;;;;;11.40;10.30;;;;;;;22.86;91.12;100668.88;84122;283;137420;-63
2023/08/20 02:31:10;;;;;;;11.00;10.10;;;;;;;22.72;91.67;100670.25;84304;282;22733;-65
2023/08/20 02:33:13;;;;;;;10.70;9.90;;;;;;;22.58;92.63;100671.23;84263;282;137452;-65
2023/08/20 02:35:16;;;;;;;10.80;9.80;;;;;;;22.47;93.61;100668.12;84333;270;22833;-63
2023/08/20 02:37:18;;;;;;;10.90;10.00;;;;;;;22.36;94.59;100665.96;84190;282;138380;-64
2023/08/20 02:39:20;;;;;;;10.80;9.90;;;;;;;22.29;95.42;100668.62;84276;283;22578;-64
2023/08/20 02:41:22;;;;;;;10.50;9.80;;;;;;;22.25;98.11;100666.05;84172;282;137270;-65
2023/08/20 02:43:24;;;;;;;11.00;10.10;;;;;;;22.27;99.29;100666.42;84297;282;25390;-65
2023/08/20 02:45:26;;;;;;;9.90;9.30;;;;;;;22.28;98.19;100668.19;84233;282;138899;-64
2023/08/20 02:47:28;;;;;;;11.10;10.30;;;;;;;22.25;98.49;100669.94;84243;283;22585;-64
2023/08/20 02:49:30;;;;;;;10.30;9.40;;;;;;;22.23;98.28;100670.38;84123;282;138665;-63
2023/08/20 02:51:32;;;;;;;10.90;10.10;;;;;;;22.22;99.65;100668.80;84121;283;22847;-65
2023/08/20 02:53:34;;;;;;;11.00;10.10;;;;;;;22.23;99.52;100670.16;84218;282;138514;-65
2023/08/20 02:55:39;;;;;;;11.90;10.30;;;;;;;22.21;99.02;100668.84;84313;283;25165;-64
2023/08/20 02:57:41;;;;;;;10.50;9.50;;;;;;;22.16;98.95;100669.84;84298;282;138844;-64
2023/08/20 02:59:43;;;;;;;11.00;9.90;;;;;;;22.10;99.00;100665.91;84315;282;23740;-65
2023/08/20 03:01:44;;;;;;;10.60;9.50;;;;;;;22.08;99.17;100662.64;84094;283;137631;-67
2023/08/20 03:03:46;;;;;;;10.00;9.30;;;;;;;22.17;98.99;100665.29;84170;283;25219;-64
2023/08/20 03:05:48;;;;;;;10.00;9.30;;;;;;;22.21;98.79;100664.71;85898;281;137271;-66
2023/08/20 03:07:50;;;;;;;10.30;9.60;;;;;;;22.14;99.19;100667.05;84316;282;22830;-62
2023/08/20 03:09:52;;;;;;;12.60;11.30;;;;;;;22.09;100.00;100660.58;84172;283;137157;-65
2023/08/20 03:11:53;;;;;;;10.10;9.10;;;;;;;22.07;100.00;100664.42;84212;283;25224;-63
2023/08/20 03:13:55;;;;;;;12.00;10.90;;;;;;;22.11;100.00;100667.11;84204;281;137281;-65
2023/08/20 03:15:58;;;;;;;10.60;9.80;;;;;;;22.21;100.00;100669.05;84298;281;22547;-61
2023/08/20 03:18:00;;;;;;;10.40;9.60;;;;;;;22.29;100.00;100667.31;84070;283;136911;-66
2023/08/20 03:20:05;;;;;;;11.90;10.90;;;;;;;22.48;99.91;100669.85;84228;282;22554;-65
2023/08/20 03:22:08;;;;;;;11.10;10.20;;;;;;;22.66;98.72;100667.34;84275;282;24983;-65
2023/08/20 03:24:09;;;;;;;11.30;10.40;;;;;;;22.82;97.41;100668.14;84142;282;137773;-66
2023/08/20 03:26:12;;;;;;;11.10;10.20;;;;;;;22.97;96.36;100662.04;84323;282;24225;-67
2023/08/20 03:28:13;;;;;;;9.90;9.00;;;;;;;23.15;95.44;100663.85;84150;283;137418;-64
2023/08/20 03:30:15;;;;;;;16.10;9.90;;;;;;;23.41;94.49;100664.13;84097;284;22545;-65
2023/08/20 03:32:18;;;;;;;9.80;9.00;;;;;;;23.76;92.50;100664.95;84240;282;137646;-64
2023/08/20 03:34:21;;;;;;;9.90;9.10;;;;;;;24.15;90.25;100662.16;84124;284;24835;-64
2023/08/20 03:36:23;;;;;;;10.70;9.70;;;;;;;24.49;87.66;100661.23;84313;283;136667;-66
2023/08/20 03:38:30;;;;;;;10.50;9.60;;;;;;;24.78;85.60;100661.89;84283;283;23890;-63
2023/08/20 03:40:31;;;;;;;10.80;9.90;;;;;;;25.07;83.53;100656.74;84194;283;136613;-63
2023/08/20 03:42:33;;;;;;;10.80;9.60;;;;;;;25.27;81.62;100660.52;84190;283;22550;-63
2023/08/20 03:44:35;;;;;;;10.90;9.80;;;;;;;25.45;80.38;100658.54;84188;283;137836;-65
2023/08/20 03:46:37;;;;;;;10.70;9.60;;;;;;;25.62;79.26;100659.81;84210;284;22638;-61
2023/08/20 03:48:39;;;;;;;10.00;9.20;;;;;;;25.77;78.03;100658.52;84175;282;137934;-65
2023/08/20 03:50:41;;;;;;;9.10;8.30;;;;;;;25.87;77.38;100658.64;84349;271;24221;-69
2023/08/20 03:52:45;;;;;;;9.00;8.20;;;;;;;26.10;76.41;100658.17;84134;282;136465;-69
2023/08/20 03:54:47;;;;;;;9.70;8.80;;;;;;;26.39;74.81;100658.37;84314;282;24439;-65
2023/08/20 03:56:51;;;;;;;10.60;9.10;;;;;;;26.57;73.36;100660.25;84283;282;137663;-68
2023/08/20 03:58:52;;;;;;;9.40;8.70;;;;;;;26.69;72.64;100654.36;84316;282;22564;-66
2023/08/20 04:00:55;;;;;;;10.30;9.40;;;;;;;26.76;72.11;100653.95;84036;283;136397;-66
2023/08/20 04:02:57;;;;;;;12.40;9.40;;;;;;;26.89;71.40;100652.40;84661;281;23146;-62
2023/08/20 04:04:59;;;;;;;12.30;11.20;;;;;;;27.01;70.11;100646.67;84098;283;136919;-64
2023/08/20 04:07:01;;;;;;;10.60;9.60;;;;;;;27.18;68.89;100644.08;84103;283;22543;-64
2023/08/20 04:09:06;;;;;;;12.00;10.00;;;;;;;27.33;68.31;100632.48;84252;282;137223;-67
2023/08/20 04:11:09;;;;;;;10.40;9.50;;;;;;;27.60;67.38;100640.83;84120;283;22554;-65
2023/08/20 04:13:14;;;;;;;12.70;10.30;;;;;;;27.86;66.41;100642.05;84145;282;136455;-65
2023/08/20 04:15:15;;;;;;;12.70;10.20;;;;;;;28.04;64.90;100639.45;84225;283;22569;-65
2023/08/20 04:17:18;;;;;;;12.20;10.30;;;;;;;28.12;64.58;100638.64;84043;283;136692;-65
2023/08/20 04:19:20;;;;;;;13.10;11.20;;;;;;;28.18;63.78;100635.77;84207;282;22550;-65
2023/08/20 04:21:22;;;;;;;10.50;9.60;;;;;;;28.22;63.46;100631.77;84028;281;136937;-64
2023/08/20 04:23:24;;;;;;;11.70;9.90;;;;;;;28.29;63.88;100631.23;84082;282;24101;-67
2023/08/20 04:25:27;;;;;;;15.30;10.40;;;;;;;28.40;63.46;100630.73;84087;283;136927;-65
2023/08/20 04:27:29;;;;;;;11.90;10.00;;;;;;;28.52;62.52;100628.45;84182;283;23740;-65
2023/08/20 04:29:30;;;;;;;18.60;9.70;;;;;;;28.65;62.21;100626.80;84113;282;137314;-66
2023/08/20 04:31:33;;;;;;;11.50;9.40;;;;;;;28.79;62.20;100623.56;84178;283;25302;-66
2023/08/20 04:33:39;;;;;;;9.90;8.70;;;;;;;28.94;60.86;100625.02;84206;283;136184;-67
2023/08/20 04:35:42;;;;;;;13.20;8.40;;;;;;;29.10;61.01;100623.19;84246;283;22734;-68
2023/08/20 04:37:43;;;;;;;11.30;8.40;;;;;;;29.32;60.47;100621.20;84141;282;136587;-67
2023/08/20 04:39:45;;;;;;;9.20;8.10;;;;;;;29.64;60.04;100626.48;84082;282;23862;-67
2023/08/20 04:41:48;;;;;;;8.60;7.90;;;;;;;30.04;58.53;100623.97;84147;282;136467;-65
2023/08/20 04:43:52;;;;;;;7.70;7.10;;;;;;;30.41;56.47;100618.38;84228;282;22734;-68
2023/08/20 04:45:55;;;;;;;9.00;8.20;;;;;;;30.69;54.35;100623.08;84172;282;137754;-68
2023/08/20 04:47:57;;;;;;;10.10;9.00;;;;;;;30.83;54.05;100625.60;84241;282;22658;-66
2023/08/20 04:49:59;;;;;;;9.90;8.10;;;;;;;30.96;53.95;100621.00;84096;283;135967;-66
2023/08/20 04:52:00;;;;;;;8.30;7.10;;;;;;;31.10;53.46;100624.00;84148;282;25136;-66
2023/08/20 04:54:04;;;;;;;8.80;7.90;;;;;;;31.27;52.84;100623.94;84137;282;22650;-64
2023/08/20 04:56:06;;;;;;;7.90;7.20;;;;;;;31.39;52.35;100621.81;84088;282;136579;-63
2023/08/20 04:58:09;;;;;;;10.70;7.80;;;;;;;31.46;52.02;100620.95;84295;282;22603;-64
2023/08/20 05:00:11;;;;;;;8.00;7.40;;;;;;;31.54;52.09;100623.48;83996;283;136391;-66
2023/08/20 05:02:20;;;;;;;8.10;7.40;;;;;;;31.66;51.80;100621.91;84130;283;22603;-66
2023/08/20 05:04:26;;;;;;;9.80;8.10;;;;;;;31.79;51.98;100623.90;84118;283;136479;-68
2023/08/20 05:06:28;;;;;;;10.10;8.50;;;;;;;32.06;51.46;100625.52;84181;283;22639;-65
2023/08/20 05:08:30;;;;;;;7.80;7.10;;;;;;;32.35;50.57;100611.64;83997;282;136606;-65
2023/08/20 05:10:31;;;;;;;8.50;7.20;;;;;;;32.75;49.66;100617.83;84055;283;25629;-66
2023/08/20 05:12:34;;;;;;;8.20;6.90;;;;;;;33.03;48.50;100620.22;84207;282;136371;-67
2023/08/20 05:14:36;;;;;;;9.90;6.70;;;;;;;33.32;47.16;100622.48;84231;282;24321;-66
2023/08/20 05:16:38;;;;;;;11.20;6.90;;;;;;;33.62;45.98;100619.73;84049;283;136290;-65
2023/08/20 05:18:40;;;;;;;10.50;6.00;;;;;;;33.87;45.84;100616.17;84205;282;23631;-64
2023/08/20 05:20:42;;;;;;;7.90;7.10;;;;;;;34.15;45.06;100617.09;83971;283;137371;-64
2023/08/20 05:22:44;;;;;;;7.20;6.60;;;;;;;34.41;44.31;100613.66;84265;283;22631;-59
2023/08/20 05:24:46;;;;;;;8.70;6.60;;;;;;;34.56;43.70;100614.08;83968;283;137580;-65
2023/08/20 05:27:06;;;;;;;6.60;6.10;;;;;;;34.62;43.30;100616.11;83933;282;22557;-61
2023/08/20 05:29:08;;;;;;;7.70;5.80;;;;;;;34.64;43.53;100616.51;84033;283;136642;-64
2023/08/20 05:31:10;;;;;;;9.60;6.00;;;;;;;34.63;43.42;100613.06;84072;283;25232;-65
2023/08/20 05:33:12;;;;;;;6.60;6.00;;;;;;;34.59;42.78;100612.51;84074;282;135905;-66
2023/08/20 05:35:14;;;;;;;7.10;6.50;;;;;;;34.53;42.95;100606.32;84137;282;22554;-65
2023/08/20 05:37:16;;;;;;;6.70;5.40;;;;;;;34.57;42.63;100607.14;84274;282;138173;-63
2023/08/20 05:39:19;;;;;;;6.20;5.60;;;;;;;34.61;42.31;100605.78;84221;282;23738;-65
2023/08/20 05:41:21;;;;;;;5.80;5.30;;;;;;;34.63;42.60;100604.44;84099;282;136571;-65
2023/08/20 05:43:24;;;;;;;6.60;5.90;;;;;;;34.61;42.12;100599.39;84200;282;25180;-67
2023/08/20 05:45:25;;;;;;;6.40;5.90;;;;;;;34.63;42.88;100595.97;84086;283;139162;-63
2023/08/20 05:47:28;;;;;;;5.60;5.30;;;;;;;34.67;42.62;100596.13;84118;282;22662;-66
2023/08/20 05:49:30;;;;;;;6.20;5.70;;;;;;;34.73;41.79;100593.64;84124;282;136077;-64
2023/08/20 05:53:47;;;;;;;6.30;5.90;;;;;;;34.82;41.47;100590.61;82541;308;545284;-67
2023/08/20 05:55:48;;;;;;;7.60;6.50;;;;;;;34.88;41.26;100587.53;83499;296;22743;-62
2023/08/20 05:57:50;;;;;;;6.30;5.90;;;;;;;34.84;41.40;100587.82;83424;297;134700;-60
2023/08/20 05:59:52;;;;;;;5.50;5.10;;;;;;;34.86;41.09;100588.58;83519;294;22549;-61
2023/08/20 06:01:54;;;;;;;6.00;5.60;;;;;;;34.90;40.96;100585.55;83549;292;135541;-62
2023/08/20 06:03:56;;;;;;;5.50;5.10;;;;;;;34.88;41.17;100585.35;83705;292;23727;-58
2023/08/20 06:05:58;;;;;;;6.50;5.90;;;;;;;34.91;40.74;100582.25;83469;292;135348;-61
2023/08/20 06:08:06;;;;;;;5.80;5.20;;;;;;;34.94;40.77;100587.89;83229;291;630779;-59
2023/08/20 06:10:11;;;;;;;5.50;5.10;;;;;;;34.91;40.57;100590.25;83915;290;22939;-57
2023/08/20 06:12:13;;;;;;;7.10;5.50;;;;;;;34.87;40.91;100592.48;83836;290;136082;-59
2023/08/20 06:14:15;;;;;;;5.00;4.60;;;;;;;34.88;41.08;100592.55;83792;291;26109;-59
2023/08/20 06:16:16;;;;;;;5.60;4.10;;;;;;;34.95;40.56;100596.32;83704;292;135863;-59
2023/08/20 06:18:18;;;;;;;6.50;4.40;;;;;;;35.00;40.68;100595.89;83840;290;25164;-63
2023/08/20 06:20:20;;;;;;;6.30;4.90;;;;;;;35.08;40.69;100592.61;83683;290;136612;-63
2023/08/20 06:22:22;;;;;;;5.90;5.20;;;;;;;35.19;40.41;100590.41;83729;290;22589;-62
2023/08/20 06:24:24;;;;;;;4.70;4.20;;;;;;;35.25;39.70;100590.44;83588;292;135990;-61
2023/08/20 06:26:26;;;;;;;4.90;4.50;;;;;;;35.26;39.82;100587.54;83797;290;24141;-60
2023/08/20 06:28:28;;;;;;;6.30;5.00;;;;;;;35.26;39.68;100582.95;83700;290;136095;-61
2023/08/20 06:30:30;;;;;;;6.70;5.10;;;;;;;35.24;39.54;100587.02;83805;291;25456;-61
2023/08/20 06:32:31;;;;;;;7.80;4.60;;;;;;;35.25;39.70;100590.83;83687;291;135972;-61
2023/08/20 06:34:35;;;;;;;5.90;5.00;;;;;;;35.18;40.02;100588.15;83806;290;22576;-61
2023/08/20 06:36:36;;;;;;;6.50;4.50;;;;;;;35.10;39.66;100583.08;83625;290;136084;-60
2023/08/20 06:38:38;;;;;;;4.70;4.20;;;;;;;35.00;39.88;100586.73;83724;291;22728;-61
2023/08/20 06:40:40;;;;;;;5.10;4.30;;;;;;;34.81;40.21;100583.77;83663;291;135977;-62
2023/08/20 06:42:41;;;;;;;8.30;5.20;;;;;;;34.69;40.38;100585.36;83755;291;22558;-61
2023/08/20 06:44:43;;;;;;;6.40;5.30;;;;;;;34.54;40.96;100584.20;83633;291;135884;-61
2023/08/20 06:46:45;;;;;;;6.60;5.50;;;;;;;34.41;41.18;100585.36;83785;291;24139;-61
2023/08/20 06:48:47;;;;;;;6.10;5.60;;;;;;;34.29;41.56;100585.05;83662;291;136272;-59
2023/08/20 06:50:48;;;;;;;9.10;5.60;;;;;;;34.11;41.98;100580.38;83686;291;22561;-61
2023/08/20 06:52:52;;;;;;;9.10;6.30;;;;;;;34.04;42.00;100575.99;83589;281;136260;-59
2023/08/20 06:54:54;;;;;;;5.50;5.20;;;;;;;34.05;42.51;100576.14;83715;290;22661;-60
2023/08/20 06:56:56;;;;;;;6.20;4.90;;;;;;;34.09;42.61;100576.89;83630;291;136318;-59
2023/08/20 06:58:58;;;;;;;5.60;5.10;;;;;;;34.19;41.89;100581.13;83795;292;25283;-63
2023/08/20 07:01:06;;;;;;;6.80;4.90;;;;;;;34.32;41.28;100579.20;83690;290;136397;-62
2023/08/20 07:03:09;;;;;;;5.10;4.70;;;;;;;34.37;41.13;100582.74;83855;291;24108;-63
2023/08/20 07:05:10;;;;;;;5.00;4.40;;;;;;;34.30;41.15;100581.11;83676;291;137551;-64
2023/08/20 07:07:14;;;;;;;7.20;4.80;;;;;;;34.12;41.36;100577.18;83788;291;25260;-60
2023/08/20 07:09:16;;;;;;;;;;;;;;;34.02;40.91;100578.37;83712;286;135709;-62
2023/08/20 07:11:18;;;;;;;6.30;4.40;;;;;;;33.87;41.01;100581.11;83756;290;22571;-62
2023/08/20 07:13:20;;;;;;;6.70;4.70;;;;;;;33.72;41.46;100579.40;83667;290;137658;-59
2023/08/20 07:15:23;;;;;;;9.20;4.80;;;;;;;33.63;41.60;100581.49;83652;292;24145;-59
2023/08/20 07:17:25;;;;;;;5.30;4.90;;;;;;;33.52;41.49;100581.95;83807;286;136583;-60
2023/08/20 07:19:27;;;;;;;7.50;4.70;;;;;;;33.41;42.13;100579.86;83785;287;22560;-59
2023/08/20 07:21:29;;;;;;;5.70;5.20;;;;;;;33.32;41.93;100580.20;83673;288;136248;-60
2023/08/20 07:23:31;;;;;;;10.00;5.90;;;;;;;33.24;41.78;100580.88;84054;275;25139;-60
2023/08/20 07:25:32;;;;;;;9.70;5.90;;;;;;;33.10;41.10;100581.55;83888;287;136272;-61
2023/08/20 07:27:34;;;;;;;7.60;6.10;;;;;;;32.91;41.40;100586.50;83954;287;22677;-62
2023/08/20 07:29:38;;;;;;;8.00;6.10;;;;;;;32.75;42.05;100583.54;83817;287;136249;-61
2023/08/20 07:31:39;;;;;;;10.00;6.20;;;;;;;32.71;42.79;100579.83;84010;287;22556;-61
2023/08/20 07:33:46;;;;;;;8.20;6.30;;;;;;;32.70;42.89;100585.52;83937;287;137386;-60
2023/08/20 07:35:49;;;;;;;7.50;6.10;;;;;;;32.68;42.65;100583.41;84037;287;22551;-60
2023/08/20 07:37:50;;;;;;;8.00;6.20;;;;;;;32.63;42.70;100581.69;83932;287;137146;-61
2023/08/20 07:39:54;;;;;;;8.60;6.60;;;;;;;32.58;42.72;100582.42;84065;287;24984;-61
2023/08/20 07:41:56;;;;;;;8.20;6.50;;;;;;;32.51;42.26;100579.83;83858;287;135727;-61
2023/08/20 07:43:57;;;;;;;7.20;5.50;;;;;;;32.45;42.37;100579.52;84111;275;22557;-64
2023/08/20 07:45:59;;;;;;;5.80;5.20;;;;;;;32.41;41.64;100571.53;84080;287;135910;-64
2023/08/20 07:48:01;;;;;;;8.70;5.40;;;;;;;32.49;40.95;100579.89;84060;286;25140;-60
2023/08/20 07:50:07;;;;;;;7.20;4.30;;;;;;;32.47;40.96;100579.59;83962;286;22573;-63
2023/08/20 07:52:09;;;;;;;6.10;4.70;;;;;;;32.42;41.57;100579.46;83984;286;136282;-62
2023/08/20 07:54:10;;;;;;;7.60;3.20;;;;;;;32.39;41.22;100578.63;84012;287;23643;-61
2023/08/20 07:56:12;;;;;;;5.10;3.00;;;;;;;32.38;41.41;100574.71;83808;287;136504;-59
2023/08/20 07:58:14;;;;;;;6.10;2.90;;;;;;;32.36;41.07;100573.02;83961;286;22700;-60
2023/08/20 08:00:16;;;;;;;7.30;4.20;;;;;;;32.38;41.03;100571.73;83693;287;136097;-60
2023/08/20 08:02:18;;;;;;;5.90;4.40;;;;;;;32.45;41.63;100568.55;85195;287;27356;-59
2023/08/20 08:04:20;;;;;;;5.10;3.60;;;;;;;32.50;42.38;100570.39;83703;288;137704;-59
2023/08/20 08:06:23;;;;;;;4.40;4.00;;;;;;;32.53;42.13;100567.15;83889;286;22550;-61
2023/08/20 08:08:25;;;;;;;4.90;4.30;;;;;;;32.53;42.10;100567.85;83911;286;135913;-59
2023/08/20 08:10:27;;;;;;;4.40;3.50;;;;;;;32.51;41.89;100564.99;83910;287;22582;-59
2023/08/20 08:12:29;;;;;;;4.60;3.20;;;;;;;32.52;41.10;100565.05;83824;286;136084;-62
2023/08/20 08:14:30;;;;;;;7.10;3.30;;;;;;;32.55;40.91;100563.52;84042;286;24110;-61
2023/08/20 08:16:32;;;;;;;2.60;2.40;;;;;;;32.62;40.90;100562.47;83895;287;136127;-60
2023/08/20 08:18:34;;;;;;;3.50;2.80;;;;;;;32.63;40.81;100558.05;84080;286;25227;-61
2023/08/20 08:20:36;;;;;;;3.20;2.90;;;;;;;32.69;40.53;100559.06;83972;287;136197;-60
2023/08/20 08:22:39;;;;;;;2.20;2.10;;;;;;;32.71;40.06;100556.39;84064;287;24138;-60
2023/08/20 08:24:42;;;;;;;3.20;2.50;;;;;;;32.62;39.51;100556.01;83982;287;135889;-60
2023/08/20 08:26:44;;;;;;;3.00;2.80;;;;;;;32.51;39.85;100559.35;84125;287;23747;-62
2023/08/20 08:28:46;;;;;;;3.90;2.60;;;;;;;32.50;39.81;100558.84;83922;287;136084;-61
2023/08/20 08:30:48;;;;;;;2.80;2.60;;;;;;;32.53;39.74;100554.21;84169;286;22710;-62
2023/08/20 08:32:50;;;;;;;4.50;2.80;;;;;;;32.57;39.88;100551.70;83949;286;135033;-63
2023/08/20 08:34:51;;;;;;;3.60;2.90;;;;;;;32.64;39.52;100553.89;84056;286;22809;-61
2023/08/20 08:36:53;;;;;;;2.20;2.00;;;;;;;32.72;39.40;100550.29;83885;287;136180;-63
2023/08/20 08:38:55;;;;;;;3.40;2.70;;;;;;;32.78;39.19;100549.95;83824;288;22816;-62
2023/08/20 08:40:58;;;;;;;3.50;2.80;;;;;;;32.76;39.42;100550.36;83640;287;136842;-60
2023/08/20 08:43:01;;;;;;;3.70;2.80;;;;;;;32.77;39.60;100543.94;83697;287;22554;-62
2023/08/20 08:45:03;;;;;;;2.50;2.20;;;;;;;32.81;39.45;100544.08;86603;286;136729;-61
2023/08/20 08:47:05;;;;;;;3.70;2.10;;;;;;;32.84;38.81;100541.38;86677;286;22293;-61
2023/08/20 08:49:08;;;;;;;4.70;2.50;;;;;;;32.89;38.02;100538.00;86540;287;136818;-61
2023/08/20 08:51:12;;;;;;;5.30;2.60;;;;;;;32.91;37.69;100538.02;86594;287;23133;-62
2023/08/20 08:53:15;;;;;;;3.50;2.10;;;;;;;32.90;37.67;100538.19;86601;287;135958;-61
2023/08/20 08:55:16;;;;;;;5.90;2.60;;;;;;;32.89;37.84;100536.60;86671;287;22334;-61
2023/08/20 08:57:19;;;;;;;8.10;3.60;;;;;;;32.94;38.06;100539.30;84763;287;137330;-61
2023/08/20 08:59:20;;;;;;;2.80;2.70;;;;;;;33.02;38.20;100537.51;84088;287;25259;-60
2023/08/20 09:01:22;;;;;;;3.00;2.80;;;;;;;33.03;38.26;100540.15;83915;286;136125;-63
2023/08/20 09:03:24;;;;;;;2.60;2.50;;;;;;;33.03;38.22;100540.30;84032;286;25137;-62
2023/08/20 09:05:26;;;;;;;2.50;2.30;;;;;;;33.03;38.54;100545.25;83854;287;136049;-62
2023/08/20 09:07:28;;;;;;;3.30;2.40;;;;;;;32.99;38.38;100546.52;83897;287;22550;-62
2023/08/20 09:09:32;;;;;;;5.80;3.10;;;;;;;32.93;38.05;100548.41;83989;287;136364;-62
2023/08/20 09:11:35;;;;;;;4.90;2.40;;;;;;;32.83;38.13;100546.29;84061;287;23751;-57
2023/08/20 09:13:42;;;;;;;;;;;;;;;32.81;38.31;100548.96;84050;287;136655;-61
2023/08/20 09:15:51;;;;;;;7.00;2.80;;;;;;;32.79;38.35;100546.14;84149;286;24153;-61
2023/08/20 09:17:53;;;;;;;3.10;2.70;;;;;;;32.75;38.68;100549.32;83949;287;136428;-62
2023/08/20 09:19:57;;;;;;;2.70;2.40;;;;;;;32.73;38.38;100543.71;84082;287;24254;-61
2023/08/20 09:21:59;;;;;;;3.10;2.60;;;;;;;32.71;38.23;100541.48;84055;287;136371;-61
2023/08/20 09:24:02;;;;;;;2.30;2.20;;;;;;;32.74;38.03;100542.90;83972;289;22555;-63
2023/08/20 09:26:05;;;;;;;6.70;2.60;;;;;;;32.79;37.80;100542.52;84047;287;22554;-60
2023/08/20 09:28:07;;;;;;;8.30;2.90;;;;;;;32.85;37.68;100541.48;84025;287;136711;-63
2023/08/20 09:30:10;;;;;;;2.90;2.70;;;;;;;32.91;38.07;100533.67;84054;286;23860;-60
2023/08/20 09:32:16;;;;;;;4.20;3.10;;;;;;;32.90;38.31;100539.02;84028;286;136768;-61
2023/08/20 09:34:18;;;;;;;5.30;2.70;;;;;;;32.80;38.51;100535.36;84137;286;24134;-59